Airfield :
LOGIN :

Register | Disclaimer

   EN    FR    IT 

 










Legend :    VFR   Marginal VFR   IFR   Intensive IFR   Very Intensive IFR
Visi :
Ceiling :
>= 8 km
>= 3000ft
5 to 8 km
1000 to 3000 ft
1500m to 5 km
500 to 1000 ft
800 to 1500m
200 to 500 ft
< 800m
< 200 ft
Symbols :   Thunderstorms  Fog  Heavy snow  Heavy precipitations  Wind > 20 kt
SIGMETs :     Misc.  Thunderstorms  Icing  Turbulence  Mountain Waves  Volcanic Ashes







- Airport Elevation : 142 ft
- IATA code : ALC


LEAL - Alicante

CURRENT METAR :
  • 181830Z VRB02KT 9999 FEW030TCU SCT065 20/14 Q1008 NOSIG

EXPIRED METARs :
  • 181800Z 22003KT 140V260 9999 FEW041TCU 20/14 Q1008 NOSIG
  • 181730Z 14003KT 9999 FEW041TCU 21/14 Q1007 NOSIG
  • 181700Z VRB02KT 9999 FEW060 22/14 Q1007 NOSIG
  • 181630Z VRB02KT CAVOK 23/13 Q1007 NOSIG
  • 181600Z VRB02KT 9999 FEW008 BKN060 23/13 Q1007 NOSIG

TAF TAF LEAL
Valid from the 18 at 18:00 until the 19 at 18:00 UTC


181700Z 1818/1918 28007KT 9999 SCT020 TX22/1912Z TN14/1906Z
PROB40
TEMPO 1818/1823 4000 TSRA SCT020CB BKN025
No reported NOTAMs for that airfield.
2 SIGMETs reported for the Barcelona FIR (LECB) :
 
Embedded thunderstorms
LECB SIGMET 9 VALID 181800/182000 LEVA
LECB BARCELONA FIR/UIR EMBD TS OBS AT 1748Z W OF LINE N3820 E00110 - N3630 W00110 TOP FL320 MOV E 15KT NC=
Embedded thunderstorms
LECB SIGMET 8 VALID 181800/182000 LEVA
LECB BARCELONA FIR/UIR EMBD TS OBS AT 1745Z WI N4130 W00050 - N3950 E00430 - N3750 E002 - N3830 W00120 - N4130 W00050 TOP FL320 MOV W 15KT NC=



MET'MAP, your aeronautical weather chart ! - Copyright ORBIFLY December 2007 - Disclaimer

ORBIFLY MET'MAP TEAM :

Programming & Development : Alexandra Zaïnal
Concept & Development : Baudouin d'Aumeries
Co-Development & Prog : Marc-Olivier Méhu
Technical & hardware support : Manuel Goepfert

Contact : metmap@orbifly.com




SOURCES & CREDITS :

   NOAA